Time;durP1;ratioP1;P1;durP2;ratioP2;P2;SDS_P1;SDS_P2;PMS_P1;PMS_P2;Temp;Humidity;BMP_temperature;BMP_pressure;BME280_temperature;BME280_humidity;BME280_pressure;Samples;Min_cycle;Max_cycle;Signal;HPM_P1;HPM_P2
2023/01/29 05:01:09;;;;;;;29.10;16.17;;;4.40;99.90;;;;;;6206469;22;20027;-77
2023/01/29 05:03:37;;;;;;;32.22;18.25;;;4.40;99.90;;;;;;6275871;22;20016;-79
2023/01/29 05:06:04;;;;;;;32.20;17.83;;;4.40;99.90;;;;;;6275841;22;20016;-77
2023/01/29 05:08:31;;;;;;;34.58;18.02;;;4.40;99.90;;;;;;6276774;22;20425;-79
2023/01/29 05:10:59;;;;;;;31.60;17.30;;;4.40;99.90;;;;;;6277895;22;20026;-80
2023/01/29 05:13:27;;;;;;;32.00;17.25;;;4.40;99.90;;;;;;6276419;22;20015;-81
2023/01/29 05:15:59;;;;;;;33.10;17.92;;;4.40;99.90;;;;;;6276084;22;20022;-81
2023/01/29 05:18:24;;;;;;;31.15;17.90;;;4.40;99.90;;;;;;6276098;22;20138;-80
2023/01/29 05:20:51;;;;;;;32.47;18.67;;;4.40;99.90;;;;;;6277253;22;20409;-78
2023/01/29 05:23:21;;;;;;;38.45;18.20;;;4.40;99.90;;;;;;6275604;22;20012;-79
2023/01/29 05:25:49;;;;;;;33.47;17.58;;;4.40;99.90;;;;;;6250280;22;20016;-79
2023/01/29 05:28:17;;;;;;;33.83;19.17;;;4.40;99.90;;;;;;6278302;22;20007;-78
2023/01/29 05:30:43;;;;;;;35.58;19.02;;;4.40;99.90;;;;;;6275988;22;20019;-81
2023/01/29 05:33:25;;;;;;;33.60;18.95;;;4.40;99.90;;;;;;6276386;22;20286;-80
2023/01/29 05:35:51;;;;;;;36.35;19.27;;;4.40;99.90;;;;;;6276397;22;20020;-78
2023/01/29 05:38:17;;;;;;;31.30;19.23;;;4.30;99.90;;;;;;6275900;22;20460;-79
2023/01/29 05:40:43;;;;;;;30.42;18.63;;;4.30;99.90;;;;;;6277667;22;20306;-80
2023/01/29 05:43:18;;;;;;;31.98;19.05;;;4.40;99.90;;;;;;6277725;22;20126;-79
2023/01/29 05:45:54;;;;;;;28.73;17.02;;;4.30;99.90;;;;;;6276228;22;20015;-79
2023/01/29 05:48:20;;;;;;;31.85;19.13;;;4.40;99.90;;;;;;6250899;22;20052;-79
2023/01/29 05:50:46;;;;;;;33.53;19.02;;;4.30;99.90;;;;;;6250605;22;20039;-77
2023/01/29 05:53:12;;;;;;;47.97;20.98;;;4.40;99.90;;;;;;6275835;22;20011;-78
2023/01/29 05:55:37;;;;;;;34.08;20.05;;;4.30;99.90;;;;;;6275697;22;20012;-80
2023/01/29 05:58:03;;;;;;;35.17;20.05;;;4.30;99.90;;;;;;6275805;22;20042;-78
2023/01/29 06:00:29;;;;;;;35.30;21.60;;;4.30;99.90;;;;;;6275478;22;20074;-79
2023/01/29 06:02:55;;;;;;;34.78;19.60;;;4.40;99.90;;;;;;6275820;22;20065;-80
2023/01/29 06:05:21;;;;;;;35.40;19.98;;;4.30;99.90;;;;;;6275240;22;20445;-81
2023/01/29 06:07:46;;;;;;;37.30;20.23;;;4.30;99.90;;;;;;6276424;22;20014;-80
2023/01/29 06:10:17;;;;;;;32.97;19.08;;;4.30;99.90;;;;;;6277349;22;20011;-81
2023/01/29 06:12:43;;;;;;;38.28;20.20;;;4.30;99.90;;;;;;6277772;22;20011;-79
2023/01/29 06:15:10;;;;;;;37.00;21.10;;;4.30;99.90;;;;;;6278070;22;20081;-79
2023/01/29 06:17:36;;;;;;;36.28;20.75;;;4.30;99.90;;;;;;6275644;22;20011;-78
2023/01/29 06:20:01;;;;;;;36.53;21.92;;;4.30;99.90;;;;;;6275757;22;20060;-80
2023/01/29 06:22:27;;;;;;;39.80;22.75;;;4.20;99.90;;;;;;6275528;22;20133;-81
2023/01/29 06:24:52;;;;;;;33.40;19.05;;;4.20;99.90;;;;;;6275886;22;20162;-79
2023/01/29 06:27:18;;;;;;;38.08;22.25;;;4.20;99.90;;;;;;6251078;22;20083;-79
2023/01/29 06:29:44;;;;;;;39.97;25.27;;;4.20;99.90;;;;;;6275556;22;20314;-78
2023/01/29 06:32:09;;;;;;;45.60;25.50;;;4.20;99.90;;;;;;6276472;22;20011;-76
2023/01/29 06:34:37;;;;;;;40.28;23.55;;;4.20;99.90;;;;;;6275734;22;20007;-79
2023/01/29 06:37:03;;;;;;;42.42;24.58;;;4.20;99.90;;;;;;6278311;22;20099;-79
2023/01/29 06:39:28;;;;;;;43.72;25.52;;;4.20;99.90;;;;;;6275526;22;20437;-80
2023/01/29 06:41:54;;;;;;;46.03;26.10;;;4.20;99.90;;;;;;6275207;22;20020;-79
2023/01/29 06:44:20;;;;;;;40.33;23.58;;;4.10;99.90;;;;;;6250109;22;20065;-82
2023/01/29 06:46:45;;;;;;;40.88;25.50;;;4.10;99.90;;;;;;6277844;22;20417;-81
2023/01/29 06:49:11;;;;;;;44.80;24.55;;;4.10;99.90;;;;;;6277660;22;20025;-81
2023/01/29 06:51:37;;;;;;;39.40;23.77;;;4.10;99.90;;;;;;6277056;22;20025;-80
2023/01/29 06:54:02;;;;;;;45.30;26.52;;;4.10;99.90;;;;;;6279793;22;20075;-78
2023/01/29 06:56:28;;;;;;;45.78;28.17;;;4.10;99.90;;;;;;6278599;22;20341;-77
2023/01/29 06:58:54;;;;;;;44.10;27.25;;;4.10;99.90;;;;;;6278168;22;20183;-77
2023/01/29 07:01:19;;;;;;;44.88;26.70;;;4.10;99.90;;;;;;6277432;22;20149;-80
2023/01/29 07:03:49;;;;;;;47.38;26.88;;;4.10;99.90;;;;;;6279895;22;20011;-80
2023/01/29 07:06:14;;;;;;;51.78;28.38;;;4.10;99.90;;;;;;6251850;22;20023;-78
2023/01/29 07:08:40;;;;;;;50.10;27.42;;;4.10;99.90;;;;;;6277641;22;20448;-82
2023/01/29 07:11:06;;;;;;;46.90;28.58;;;4.10;99.90;;;;;;6277424;22;20126;-78
2023/01/29 07:13:33;;;;;;;51.92;28.63;;;4.10;99.90;;;;;;6277717;22;20073;-78
2023/01/29 07:16:03;;;;;;;50.28;28.35;;;4.10;99.90;;;;;;6278952;22;20050;-79
2023/01/29 07:18:29;;;;;;;49.38;28.55;;;4.10;99.90;;;;;;6279056;22;20364;-79
2023/01/29 07:20:55;;;;;;;50.33;29.30;;;4.10;99.90;;;;;;6251663;22;20015;-79
2023/01/29 07:23:21;;;;;;;49.05;28.88;;;4.10;99.90;;;;;;6277019;22;20147;-78
2023/01/29 07:25:48;;;;;;;45.70;27.40;;;4.20;99.90;;;;;;6278877;22;20008;-78
2023/01/29 07:28:19;;;;;;;45.88;26.55;;;4.10;99.90;;;;;;6278940;22;20065;-77
2023/01/29 07:30:45;;;;;;;45.75;26.40;;;4.10;99.90;;;;;;6276942;22;20082;-79
2023/01/29 07:33:11;;;;;;;42.47;23.77;;;4.20;99.90;;;;;;6278622;22;20044;-80
2023/01/29 07:35:38;;;;;;;48.60;27.42;;;4.10;99.90;;;;;;6279394;22;20023;-80
2023/01/29 07:38:04;;;;;;;44.60;27.80;;;4.10;99.90;;;;;;6276729;22;20338;-79
2023/01/29 07:40:30;;;;;;;49.20;27.35;;;4.10;99.90;;;;;;6251484;22;20087;-79
2023/01/29 07:43:00;;;;;;;44.22;24.95;;;4.10;99.90;;;;;;6277444;22;20058;-81
2023/01/29 07:45:27;;;;;;;50.92;28.40;;;4.20;99.90;;;;;;6276565;22;20042;-81
2023/01/29 07:47:54;;;;;;;42.13;23.77;;;4.20;99.90;;;;;;6276099;22;20015;-81
2023/01/29 07:50:20;;;;;;;47.30;24.42;;;4.20;99.90;;;;;;6278523;22;20385;-80
2023/01/29 07:52:46;;;;;;;53.47;28.13;;;4.20;99.90;;;;;;6276350;22;20012;-78
2023/01/29 07:55:11;;;;;;;45.85;26.35;;;4.20;99.90;;;;;;6277010;22;20015;-79
2023/01/29 07:57:37;;;;;;;49.50;28.13;;;4.20;99.90;;;;;;6278669;22;20012;-77
2023/01/29 08:00:03;;;;;;;46.00;26.63;;;4.20;99.90;;;;;;6278897;22;20015;-77
2023/01/29 08:02:29;;;;;;;47.30;26.42;;;4.20;99.90;;;;;;6276043;22;20015;-79
2023/01/29 08:04:54;;;;;;;47.10;26.67;;;4.20;99.90;;;;;;6277416;22;20095;-82
2023/01/29 08:07:20;;;;;;;46.30;25.05;;;4.20;99.90;;;;;;6276838;22;20015;-78
2023/01/29 08:09:45;;;;;;;45.78;23.67;;;4.20;99.90;;;;;;6277174;22;20031;-80
2023/01/29 08:12:11;;;;;;;45.03;24.25;;;4.20;99.90;;;;;;6277347;22;20087;-79
2023/01/29 08:14:37;;;;;;;50.42;25.85;;;4.20;99.90;;;;;;6276491;22;20091;-80
2023/01/29 08:17:03;;;;;;;45.80;26.38;;;4.20;99.90;;;;;;6278099;22;20043;-82
2023/01/29 08:19:28;;;;;;;45.35;22.15;;;4.30;99.90;;;;;;6251519;22;20094;-80
2023/01/29 08:21:54;;;;;;;49.97;26.63;;;4.30;99.90;;;;;;6277879;22;20019;-78
2023/01/29 08:24:19;;;;;;;48.60;24.88;;;4.20;99.90;;;;;;6278200;22;20015;-79
2023/01/29 08:26:45;;;;;;;46.17;25.83;;;4.30;99.90;;;;;;6276590;22;20018;-79
2023/01/29 08:29:11;;;;;;;46.30;23.77;;;4.30;99.90;;;;;;6250898;22;20007;-80
2023/01/29 08:31:37;;;;;;;46.90;24.83;;;4.30;99.90;;;;;;6278273;22;20007;-80
2023/01/29 08:34:02;;;;;;;48.55;26.38;;;4.20;99.90;;;;;;6278579;22;20007;-79
2023/01/29 08:36:28;;;;;;;45.88;24.63;;;4.20;99.90;;;;;;6276780;22;20023;-81
2023/01/29 08:38:53;;;;;;;52.88;25.52;;;4.20;99.90;;;;;;6277014;22;20016;-79
2023/01/29 08:41:19;;;;;;;55.38;26.95;;;4.30;99.90;;;;;;6261000;22;20026;-75
2023/01/29 08:43:45;;;;;;;53.65;26.80;;;4.20;99.90;;;;;;6263130;22;20019;-78
2023/01/29 08:46:11;;;;;;;51.60;28.33;;;4.20;99.90;;;;;;6277273;22;20341;-80
2023/01/29 08:48:37;;;;;;;52.35;26.52;;;4.20;99.90;;;;;;6278669;22;20048;-80
2023/01/29 08:51:03;;;;;;;50.35;26.17;;;4.20;99.90;;;;;;6278577;22;20007;-79
2023/01/29 08:53:29;;;;;;;48.97;26.50;;;4.20;99.90;;;;;;6279202;22;20015;-79
2023/01/29 08:55:55;;;;;;;53.22;27.02;;;4.30;99.90;;;;;;6278399;22;20020;-79
2023/01/29 08:58:21;;;;;;;49.40;24.35;;;4.30;99.90;;;;;;6277142;22;20472;-78
2023/01/29 09:00:46;;;;;;;42.42;23.20;;;4.30;99.90;;;;;;6276989;22;20019;-80
2023/01/29 09:03:12;;;;;;;51.17;27.05;;;4.30;99.90;;;;;;6277497;22;20012;-77
2023/01/29 09:05:39;;;;;;;51.90;25.83;;;4.30;99.90;;;;;;6251747;22;20043;-82
2023/01/29 09:08:06;;;;;;;54.13;27.33;;;4.30;99.90;;;;;;6279392;22;20379;-78
2023/01/29 09:10:32;;;;;;;53.47;26.77;;;4.40;99.90;;;;;;6276349;22;20020;-82
2023/01/29 09:12:58;;;;;;;48.75;24.75;;;4.40;99.90;;;;;;6278277;22;20010;-81
2023/01/29 09:15:23;;;;;;;53.85;24.02;;;4.40;99.90;;;;;;6276508;22;20071;-79
2023/01/29 09:17:49;;;;;;;48.10;25.65;;;4.40;99.90;;;;;;6277187;22;20018;-79
2023/01/29 09:20:15;;;;;;;49.70;24.33;;;4.40;99.90;;;;;;6278330;22;20012;-82
2023/01/29 09:22:41;;;;;;;44.03;22.05;;;4.40;99.90;;;;;;6278186;22;20012;-81
2023/01/29 09:25:07;;;;;;;49.25;25.98;;;4.40;99.90;;;;;;6249959;22;20065;-77
2023/01/29 09:27:33;;;;;;;49.88;26.05;;;4.40;99.90;;;;;;6275856;22;20015;-78
2023/01/29 09:29:59;;;;;;;47.90;25.30;;;4.50;99.90;;;;;;6276572;22;20043;-80
2023/01/29 09:32:24;;;;;;;51.28;26.10;;;4.50;99.90;;;;;;6278232;22;20015;-79
2023/01/29 09:34:50;;;;;;;48.88;25.73;;;4.50;99.90;;;;;;6276143;22;20015;-78
2023/01/29 09:37:21;;;;;;;44.90;24.95;;;4.50;99.90;;;;;;6276625;22;20027;-80
2023/01/29 09:39:47;;;;;;;43.45;22.42;;;4.50;99.90;;;;;;6278694;22;20364;-80
2023/01/29 09:42:17;;;;;;;45.47;24.15;;;4.50;99.90;;;;;;6276322;22;20093;-82
2023/01/29 09:45:09;;;;;;;48.28;24.75;;;4.60;99.90;;;;;;6276509;22;20075;-79
2023/01/29 09:47:36;;;;;;;47.10;24.70;;;4.60;99.90;;;;;;6277270;22;20077;-81
2023/01/29 09:50:06;;;;;;;48.10;22.85;;;4.60;99.90;;;;;;6277909;22;20012;-78
2023/01/29 09:52:39;;;;;;;47.92;25.30;;;4.60;99.90;;;;;;6276649;22;20008;-82
2023/01/29 09:55:23;;;;;;;50.17;24.77;;;4.60;99.90;;;;;;6278860;22;20019;-79
2023/01/29 09:57:52;;;;;;;49.00;23.83;;;4.60;99.90;;;;;;6276029;22;20471;-80
2023/01/29 10:00:39;;;;;;;43.83;24.15;;;4.60;99.90;;;;;;6277874;22;20019;-79
2023/01/29 10:03:36;;;;;;;47.92;25.20;;;4.60;99.90;;;;;;6250497;22;20046;-79
2023/01/29 10:06:20;;;;;;;46.45;22.92;;;4.60;99.90;;;;;;6277971;22;20016;-79
2023/01/29 10:08:45;;;;;;;46.78;22.48;;;4.70;99.90;;;;;;6277396;22;20406;-79
2023/01/29 10:11:37;;;;;;;51.75;25.48;;;4.70;99.90;;;;;;6250255;22;20019;-78
2023/01/29 10:14:11;;;;;;;47.95;21.77;;;4.60;99.90;;;;;;6250198;22;20043;-79
2023/01/29 10:17:06;;;;;;;41.67;20.27;;;4.60;99.90;;;;;;6276214;22;20062;-81
2023/01/29 10:19:43;;;;;;;49.58;26.58;;;4.60;99.90;;;;;;6277996;22;20016;-81
2023/01/29 10:22:27;;;;;;;42.88;22.08;;;4.70;99.90;;;;;;6277640;22;20034;-79
2023/01/29 10:25:01;;;;;;;50.63;25.77;;;4.70;99.90;;;;;;6276539;22;20438;-78
2023/01/29 10:27:32;;;;;;;51.38;23.95;;;4.60;99.90;;;;;;6277964;22;20334;-79
2023/01/29 10:30:02;;;;;;;48.58;25.23;;;4.60;99.90;;;;;;6279884;22;20015;-81
2023/01/29 10:32:28;;;;;;;51.47;25.35;;;4.60;99.90;;;;;;6279590;22;20012;-80
2023/01/29 10:35:17;;;;;;;45.85;23.40;;;4.70;99.90;;;;;;6280288;22;20016;-79
2023/01/29 10:37:43;;;;;;;53.78;26.40;;;4.70;99.90;;;;;;6280290;22;20022;-81
2023/01/29 10:40:11;;;;;;;52.45;26.08;;;4.60;99.90;;;;;;6252195;22;20012;-81
2023/01/29 10:42:45;;;;;;;50.22;22.70;;;4.60;99.90;;;;;;6279588;22;20011;-78
2023/01/29 10:45:24;;;;;;;50.50;25.60;;;4.60;99.90;;;;;;6279445;22;20015;-80
2023/01/29 10:48:06;;;;;;;56.72;26.60;;;4.60;99.90;;;;;;6278490;22;20018;-81
2023/01/29 10:50:40;;;;;;;61.20;28.85;;;4.60;99.90;;;;;;6278155;22;20016;-80
2023/01/29 10:53:26;;;;;;;54.92;28.13;;;4.60;99.90;;;;;;6278058;22;20062;-78
2023/01/29 10:56:16;;;;;;;42.90;20.42;;;4.70;99.90;;;;;;6278065;22;20016;-77
2023/01/29 10:58:50;;;;;;;55.72;26.08;;;4.60;99.90;;;;;;6279749;22;20016;-81
2023/01/29 11:01:16;;;;;;;55.93;26.40;;;4.60;99.90;;;;;;6252588;22;20148;-80
2023/01/29 11:03:42;;;;;;;47.53;24.05;;;4.70;99.90;;;;;;6277862;22;20047;-79
2023/01/29 11:06:20;;;;;;;45.30;22.90;;;4.70;99.90;;;;;;6277672;22;20018;-77
2023/01/29 11:09:04;;;;;;;51.85;25.73;;;4.70;99.90;;;;;;6279361;22;20016;-80
2023/01/29 11:11:53;;;;;;;47.42;23.27;;;4.70;99.90;;;;;;6277666;22;20070;-79
2023/01/29 11:14:57;;;;;;;55.13;26.70;;;4.70;99.90;;;;;;6278730;22;20035;-78
2023/01/29 11:17:24;;;;;;;46.08;23.20;;;4.80;99.90;;;;;;6129676;22;20064;-80
2023/01/29 11:19:52;;;;;;;48.97;25.63;;;4.80;99.90;;;;;;6280008;22;20011;-80
2023/01/29 11:22:23;;;;;;;50.00;25.05;;;4.80;99.90;;;;;;6279746;22;20030;-79
2023/01/29 11:25:09;;;;;;;47.22;23.95;;;4.80;99.90;;;;;;6279192;22;20015;-82
2023/01/29 11:27:43;;;;;;;45.33;23.33;;;4.90;99.90;;;;;;6277532;22;20016;-79
2023/01/29 11:30:27;;;;;;;38.83;19.17;;;4.90;99.90;;;;;;6277727;22;20018;-80
2023/01/29 11:33:07;;;;;;;46.63;23.80;;;4.90;99.90;;;;;;6278907;22;20086;-80
2023/01/29 11:35:34;;;;;;;46.85;25.58;;;5.00;99.90;;;;;;6279697;22;20023;-80
2023/01/29 11:38:20;;;;;;;46.15;24.08;;;4.90;99.90;;;;;;6278999;22;20012;-81
2023/01/29 11:40:46;;;;;;;40.95;20.75;;;4.90;99.90;;;;;;6276703;22;20129;-80
2023/01/29 11:43:17;;;;;;;50.03;23.92;;;5.00;99.90;;;;;;6277371;22;20011;-79
2023/01/29 11:45:43;;;;;;;43.38;22.00;;;4.90;99.90;;;;;;6277111;22;20016;-78
2023/01/29 11:48:18;;;;;;;44.38;23.23;;;4.90;99.90;;;;;;6277088;22;20012;-81
2023/01/29 11:50:51;;;;;;;50.30;25.98;;;4.90;99.90;;;;;;6276544;22;20004;-80
2023/01/29 11:53:34;;;;;;;47.08;23.42;;;4.80;99.90;;;;;;6253197;22;20318;-82
2023/01/29 11:56:15;;;;;;;48.33;24.88;;;4.80;99.90;;;;;;6278496;22;20022;-81
2023/01/29 11:58:42;;;;;;;48.42;24.15;;;4.80;99.90;;;;;;6278382;22;20071;-81
2023/01/29 12:01:09;;;;;;;47.22;24.20;;;4.80;99.90;;;;;;6278200;22;20485;-79
2023/01/29 12:03:44;;;;;;;47.05;25.60;;;4.70;99.90;;;;;;6276683;22;20020;-79
2023/01/29 12:06:23;;;;;;;52.50;26.20;;;4.80;99.90;;;;;;6278746;22;20364;-80
2023/01/29 12:08:57;;;;;;;54.40;25.30;;;4.70;99.90;;;;;;6276900;22;20008;-81
2023/01/29 12:11:24;;;;;;;52.55;25.25;;;4.80;99.90;;;;;;6277975;22;20011;-82
2023/01/29 12:13:56;;;;;;;51.35;26.27;;;4.70;99.90;;;;;;6277769;22;20047;-82
2023/01/29 12:16:31;;;;;;;54.50;26.10;;;4.70;99.90;;;;;;6278112;22;20058;-81
2023/01/29 12:19:17;;;;;;;57.47;28.95;;;4.70;99.90;;;;;;6276253;22;20445;-82
2023/01/29 12:21:52;;;;;;;51.60;27.10;;;4.70;99.90;;;;;;6279005;22;20084;-81
2023/01/29 12:24:33;;;;;;;55.03;26.35;;;4.70;99.90;;;;;;6278353;22;20082;-81
2023/01/29 12:27:27;;;;;;;55.97;27.00;;;4.70;99.90;;;;;;6276984;22;20019;-80
2023/01/29 12:30:11;;;;;;;55.20;27.10;;;4.70;99.90;;;;;;6277114;22;20019;-81
2023/01/29 12:32:54;;;;;;;46.10;22.23;;;4.70;99.90;;;;;;6278021;22;20118;-81
2023/01/29 12:35:23;;;;;;;53.60;27.67;;;4.70;99.90;;;;;;6278437;22;20341;-79
2023/01/29 12:37:59;;;;;;;56.22;28.17;;;4.60;99.90;;;;;;6277948;22;20082;-82
2023/01/29 12:40:39;;;;;;;59.08;29.60;;;4.60;99.90;;;;;;6279052;22;20011;-81
2023/01/29 12:43:21;;;;;;;60.95;27.25;;;4.60;99.90;;;;;;6276960;22;20453;-82
2023/01/29 12:45:51;;;;;;;58.65;27.90;;;4.60;99.90;;;;;;6278403;22;20016;-82
2023/01/29 12:48:28;;;;;;;51.75;23.38;;;4.60;99.90;;;;;;6277441;22;20058;-80
2023/01/29 12:50:58;;;;;;;68.35;30.50;;;4.60;99.90;;;;;;6278609;22;20441;-80
2023/01/29 12:54:11;;;;;;;57.30;27.23;;;4.60;99.90;;;;;;6277970;22;20424;-79
2023/01/29 12:56:56;;;;;;;60.50;28.30;;;4.50;99.90;;;;;;6129501;23;20045;-80
2023/01/29 12:59:40;;;;;;;62.33;30.23;;;4.50;99.90;;;;;;6154252;23;20009;-81
2023/01/29 13:02:31;;;;;;;61.83;29.80;;;4.50;99.90;;;;;;6243512;22;20433;-82
2023/01/29 13:05:19;;;;;;;67.45;30.98;;;4.50;99.90;;;;;;6275415;22;20008;-81
2023/01/29 13:07:51;;;;;;;61.67;28.00;;;4.50;99.90;;;;;;6249663;22;20012;-79
2023/01/29 13:10:25;;;;;;;67.57;31.20;;;4.40;99.90;;;;;;6275654;22;20008;-81
2023/01/29 13:12:57;;;;;;;69.38;31.48;;;4.40;99.90;;;;;;6278577;22;20011;-81
2023/01/29 13:15:41;;;;;;;64.05;30.73;;;4.40;99.90;;;;;;6275539;22;20012;-80
2023/01/29 13:18:22;;;;;;;63.78;28.67;;;4.40;99.90;;;;;;6276886;22;20015;-81
2023/01/29 13:20:49;;;;;;;64.50;30.17;;;4.40;99.90;;;;;;6277490;22;20022;-80
2023/01/29 13:23:27;;;;;;;61.25;29.10;;;4.40;99.90;;;;;;6275278;22;20023;-80
2023/01/29 13:25:53;;;;;;;64.18;28.70;;;4.40;99.90;;;;;;6277925;22;20422;-79
2023/01/29 13:28:24;;;;;;;54.80;25.80;;;4.40;99.90;;;;;;6289129;22;20029;-78
2023/01/29 13:31:24;;;;;;;65.57;30.70;;;4.40;99.90;;;;;;6292079;22;20015;-76
2023/01/29 13:34:35;;;;;;;74.90;32.45;;;4.50;99.90;;;;;;6278651;22;20008;-82
2023/01/29 13:37:10;;;;;;;56.45;26.63;;;4.40;99.90;;;;;;6131469;23;20482;-80
2023/01/29 13:39:43;;;;;;;65.85;28.30;;;4.50;99.90;;;;;;6255208;22;20015;-79
2023/01/29 13:42:45;;;;;;;60.85;28.67;;;4.50;99.90;;;;;;6278210;22;20008;-80
2023/01/29 13:45:32;;;;;;;71.82;31.98;;;4.50;99.90;;;;;;6277422;22;20438;-80
2023/01/29 13:48:47;;;;;;;56.28;29.17;;;4.50;99.90;;;;;;6278206;22;20016;-81
2023/01/29 13:51:19;;;;;;;66.35;31.08;;;4.50;99.90;;;;;;6154725;23;20010;-81
2023/01/29 13:53:59;;;;;;;63.70;29.73;;;4.50;99.90;;;;;;6153511;23;20167;-81
2023/01/29 13:56:32;;;;;;;67.63;30.50;;;4.50;99.90;;;;;;6237697;22;20027;-81
2023/01/29 13:59:04;;;;;;;68.57;30.55;;;4.50;99.90;;;;;;6277112;22;20008;-81
2023/01/29 14:01:48;;;;;;;71.32;31.98;;;4.40;99.90;;;;;;6277338;22;20377;-82
2023/01/29 14:04:28;;;;;;;70.05;32.45;;;4.40;99.90;;;;;;6275528;22;20016;-81
2023/01/29 14:06:55;;;;;;;70.22;32.58;;;4.40;99.90;;;;;;6275442;22;20022;-80
2023/01/29 14:09:36;;;;;;;66.22;29.83;;;4.40;99.90;;;;;;6277275;22;20467;-81
2023/01/29 14:12:02;;;;;;;67.53;32.03;;;4.40;99.90;;;;;;6275331;22;20340;-80
2023/01/29 14:14:50;;;;;;;56.13;25.13;;;4.40;99.90;;;;;;6277743;22;20318;-81
2023/01/29 14:17:18;;;;;;;76.30;33.45;;;4.40;99.90;;;;;;6276462;22;20119;-80
2023/01/29 14:19:51;;;;;;;67.40;28.27;;;4.40;99.90;;;;;;6276206;22;20023;-80
2023/01/29 14:22:26;;;;;;;67.63;29.88;;;4.40;99.90;;;;;;6275152;22;20067;-82
2023/01/29 14:24:59;;;;;;;80.67;35.37;;;4.40;99.90;;;;;;6277180;22;20053;-83
2023/01/29 14:27:26;;;;;;;73.05;31.98;;;4.40;99.90;;;;;;6275739;22;20502;-80
2023/01/29 14:30:01;;;;;;;74.57;29.52;;;4.40;99.90;;;;;;6275891;22;20086;-80
2023/01/29 14:32:28;;;;;;;86.88;37.88;;;4.40;99.90;;;;;;6275971;22;20008;-82
2023/01/29 14:35:02;;;;;;;79.22;34.38;;;4.30;99.90;;;;;;6275515;22;20061;-82
2023/01/29 14:37:39;;;;;;;73.57;32.50;;;4.30;99.90;;;;;;6275291;22;20016;-80
2023/01/29 14:40:11;;;;;;;80.28;34.83;;;4.30;99.90;;;;;;6277030;22;20242;-80
2023/01/29 14:42:43;;;;;;;85.95;35.67;;;4.40;99.90;;;;;;6276823;22;20310;-83
2023/01/29 14:45:32;;;;;;;84.13;36.15;;;4.30;99.90;;;;;;6277095;22;20444;-78
2023/01/29 14:48:10;;;;;;;75.07;32.92;;;4.30;99.90;;;;;;6276710;22;20008;-82
2023/01/29 14:50:36;;;;;;;81.07;36.08;;;4.30;99.90;;;;;;6276463;22;20319;-80
2023/01/29 14:53:19;;;;;;;81.63;34.85;;;4.40;99.90;;;;;;6275128;22;20019;-81
2023/01/29 14:56:13;;;;;;;79.40;35.00;;;4.40;99.90;;;;;;6275012;22;20016;-82
2023/01/29 14:58:49;;;;;;;84.47;35.80;;;4.40;99.90;;;;;;6275444;22;20034;-80
2023/01/29 15:01:36;;;;;;;81.00;35.83;;;4.40;99.90;;;;;;6276591;22;20014;-81
2023/01/29 15:04:04;;;;;;;82.40;35.53;;;4.40;99.90;;;;;;6274742;22;20100;-80
2023/01/29 15:06:44;;;;;;;72.72;32.10;;;4.50;99.90;;;;;;6274449;22;20511;-81
2023/01/29 15:09:16;;;;;;;79.50;32.85;;;4.50;99.90;;;;;;6276413;22;20062;-79
2023/01/29 15:11:59;;;;;;;80.88;33.75;;;4.50;99.90;;;;;;6275181;22;20032;-80
2023/01/29 15:14:58;;;;;;;81.35;34.05;;;4.50;99.90;;;;;;6278764;22;20056;-80
2023/01/29 15:17:32;;;;;;;71.60;32.15;;;4.50;99.90;;;;;;6212291;22;20019;-80
2023/01/29 15:19:58;;;;;;;67.90;31.35;;;4.50;99.90;;;;;;6279099;22;20105;-81
2023/01/29 15:22:24;;;;;;;81.35;36.15;;;4.50;99.90;;;;;;6276772;22;20016;-79
2023/01/29 15:25:23;;;;;;;82.00;36.03;;;4.50;99.90;;;;;;6276367;22;20339;-80
2023/01/29 15:27:49;;;;;;;78.03;32.08;;;4.60;99.90;;;;;;6185790;22;20373;-79
2023/01/29 15:30:22;;;;;;;78.25;36.92;;;4.50;99.90;;;;;;6251026;22;20042;-80
2023/01/29 15:32:48;;;;;;;81.22;34.20;;;4.60;99.90;;;;;;6276172;22;20046;-82
2023/01/29 15:35:17;;;;;;;86.60;36.00;;;4.60;99.90;;;;;;6278502;22;20028;-80
2023/01/29 15:37:56;;;;;;;84.43;34.47;;;4.50;99.90;;;;;;6251281;22;20020;-79
2023/01/29 15:40:22;;;;;;;82.60;35.45;;;4.60;99.90;;;;;;6276733;22;20020;-81
2023/01/29 15:42:48;;;;;;;82.50;34.97;;;4.60;99.90;;;;;;6276404;22;20043;-80
2023/01/29 15:45:33;;;;;;;80.93;33.50;;;4.60;99.90;;;;;;6276536;22;20349;-81
2023/01/29 15:48:16;;;;;;;76.53;31.92;;;4.60;99.90;;;;;;6278594;22;20078;-79
2023/01/29 15:50:42;;;;;;;76.75;32.70;;;4.60;99.90;;;;;;6252210;22;20084;-79
2023/01/29 15:53:19;;;;;;;86.72;34.47;;;4.60;99.90;;;;;;6279264;22;20058;-80
2023/01/29 15:55:46;;;;;;;78.93;30.95;;;4.60;99.90;;;;;;6277977;22;20413;-81
2023/01/29 15:58:18;;;;;;;57.60;24.02;;;4.70;99.90;;;;;;6276801;22;20019;-81
2023/01/29 16:00:52;;;;;;;86.30;36.10;;;4.70;99.90;;;;;;6276794;22;20042;-80
2023/01/29 16:03:23;;;;;;;80.20;35.78;;;4.60;99.90;;;;;;6276880;22;20043;-81
2023/01/29 16:05:50;;;;;;;85.03;36.30;;;4.70;99.90;;;;;;6278181;22;20019;-81
2023/01/29 16:08:17;;;;;;;90.93;38.63;;;4.60;99.90;;;;;;6277998;22;20008;-81
2023/01/29 16:10:44;;;;;;;87.55;38.53;;;4.70;99.90;;;;;;6275911;22;20404;-82
2023/01/29 16:13:22;;;;;;;86.85;37.10;;;4.70;99.90;;;;;;6277558;22;20045;-79
2023/01/29 16:16:03;;;;;;;86.93;36.92;;;4.60;99.90;;;;;;6276177;22;20015;-82
2023/01/29 16:18:38;;;;;;;83.72;36.58;;;4.60;99.90;;;;;;6276695;22;20016;-79
2023/01/29 16:21:28;;;;;;;79.75;32.92;;;4.60;99.90;;;;;;6276021;22;20537;-82
2023/01/29 16:24:01;;;;;;;82.63;34.60;;;4.60;99.90;;;;;;6275579;22;20016;-82
2023/01/29 16:26:33;;;;;;;78.82;34.67;;;4.60;99.90;;;;;;6250949;22;20019;-80
2023/01/29 16:29:10;;;;;;;87.40;36.60;;;4.60;99.90;;;;;;6278320;22;20016;-80
2023/01/29 16:31:37;;;;;;;67.18;30.63;;;4.60;99.90;;;;;;6278595;22;20012;-80
2023/01/29 16:34:13;;;;;;;76.72;32.47;;;4.60;99.90;;;;;;6275839;22;20032;-82
2023/01/29 16:36:46;;;;;;;72.03;30.80;;;4.60;99.90;;;;;;6277813;22;20023;-79
2023/01/29 16:39:26;;;;;;;79.05;35.95;;;4.60;99.90;;;;;;6276910;22;20015;-81
2023/01/29 16:42:09;;;;;;;80.97;34.60;;;4.60;99.90;;;;;;6276709;22;20019;-81
2023/01/29 16:44:39;;;;;;;76.53;36.20;;;4.60;99.90;;;;;;6276655;22;20520;-80
2023/01/29 16:47:11;;;;;;;74.28;34.70;;;4.50;99.90;;;;;;6278338;22;20012;-82
2023/01/29 16:49:37;;;;;;;72.97;33.65;;;4.50;99.90;;;;;;6276663;22;20018;-80
2023/01/29 16:52:16;;;;;;;76.57;33.22;;;4.50;99.90;;;;;;6276526;22;20133;-79
2023/01/29 16:54:42;;;;;;;72.63;32.15;;;4.50;99.90;;;;;;6276429;22;20012;-79
2023/01/29 16:57:17;;;;;;;71.05;31.88;;;4.50;99.90;;;;;;6276507;22;20015;-78
2023/01/29 16:59:43;;;;;;;65.60;31.20;;;4.50;99.90;;;;;;6278290;22;20015;-80
2023/01/29 17:02:21;;;;;;;59.65;28.00;;;4.50;99.90;;;;;;6250621;22;20019;-80
2023/01/29 17:04:47;;;;;;;72.57;33.38;;;4.50;99.90;;;;;;6276797;22;20067;-80
2023/01/29 17:07:20;;;;;;;72.50;30.63;;;4.60;99.90;;;;;;6279047;22;20359;-80
2023/01/29 17:09:50;;;;;;;55.95;25.35;;;4.60;99.90;;;;;;6276824;22;20012;-83
2023/01/29 17:12:21;;;;;;;42.53;21.05;;;4.60;99.90;;;;;;6278344;22;20000;-80
2023/01/29 17:15:23;;;;;;;62.33;27.40;;;4.60;99.90;;;;;;6277033;22;20398;-79
2023/01/29 17:17:49;;;;;;;63.03;28.70;;;4.60;99.90;;;;;;6277351;22;20011;-79
2023/01/29 17:20:15;;;;;;;64.65;31.23;;;4.60;99.90;;;;;;6275868;22;20022;-81
2023/01/29 17:22:43;;;;;;;62.03;29.10;;;4.60;99.90;;;;;;6275997;22;20082;-80
2023/01/29 17:25:13;;;;;;;66.00;32.25;;;4.60;99.90;;;;;;6275945;22;20034;-80
2023/01/29 17:27:50;;;;;;;64.32;30.23;;;4.60;99.90;;;;;;6251581;22;20303;-82
2023/01/29 17:30:19;;;;;;;53.35;25.27;;;4.60;99.90;;;;;;6277771;22;20061;-80
2023/01/29 17:32:45;;;;;;;62.00;29.63;;;4.60;99.90;;;;;;6276362;22;20039;-80
2023/01/29 17:35:15;;;;;;;53.63;24.98;;;4.60;99.90;;;;;;6277169;22;20015;-80
2023/01/29 17:37:40;;;;;;;56.75;27.38;;;4.60;99.90;;;;;;6251414;22;20011;-80
2023/01/29 17:40:31;;;;;;;62.17;28.45;;;4.60;99.90;;;;;;6275938;22;20110;-82
2023/01/29 17:42:57;;;;;;;52.85;23.25;;;4.60;99.90;;;;;;6250579;22;20015;-81
2023/01/29 17:45:22;;;;;;;60.05;28.40;;;4.60;99.90;;;;;;6275872;22;20027;-79
2023/01/29 17:47:48;;;;;;;63.47;28.65;;;4.60;99.90;;;;;;6275852;22;20456;-79
2023/01/29 17:50:21;;;;;;;54.10;24.58;;;4.70;99.90;;;;;;6250000;22;20087;-80
2023/01/29 17:52:47;;;;;;;59.55;26.75;;;4.70;99.90;;;;;;6275938;22;20086;-82
2023/01/29 17:55:12;;;;;;;59.03;28.90;;;4.80;99.90;;;;;;6275708;22;20019;-79
2023/01/29 17:57:38;;;;;;;59.78;26.58;;;4.80;99.90;;;;;;6277774;22;20043;-80
2023/01/29 18:00:12;;;;;;;57.53;27.42;;;4.80;99.90;;;;;;6275656;22;20015;-81
2023/01/29 18:02:38;;;;;;;54.05;25.35;;;4.80;99.90;;;;;;6275665;22;20027;-79